Time;durP1;ratioP1;P1;durP2;ratioP2;P2;SDS_P1;SDS_P2;PMS_P1;PMS_P2;Temp;Humidity;BMP_temperature;BMP_pressure;BME280_temperature;BME280_humidity;BME280_pressure;Samples;Min_cycle;Max_cycle;Signal;HPM_P1;HPM_P2
2022/11/17 00:00:04;;;;;;;4.55;1.45;;;5.30;61.10;;;;;;4128803;28;20036;-87
2022/11/17 00:02:05;;;;;;;5.43;1.63;;;5.20;61.10;;;;;;4111610;28;20022;-85
2022/11/17 00:04:07;;;;;;;3.15;1.23;;;5.30;61.40;;;;;;4114380;28;20102;-85
2022/11/17 00:06:08;;;;;;;4.15;1.38;;;5.10;61.70;;;;;;4115139;28;20097;-86
2022/11/17 00:08:29;;;;;;;4.28;1.33;;;5.10;62.60;;;;;;4119595;28;20042;-84
2022/11/17 00:10:49;;;;;;;14.07;1.45;;;5.20;62.90;;;;;;4132985;28;20091;-85
2022/11/17 00:15:49;;;;;;;3.13;1.50;;;5.00;63.60;;;;;;4134703;28;20049;-85
2022/11/17 00:22:49;;;;;;;8.10;1.70;;;5.00;63.70;;;;;;4118650;28;20022;-86
2022/11/17 00:24:50;;;;;;;4.32;1.70;;;4.90;63.90;;;;;;4132654;28;20040;-84
2022/11/17 00:27:11;;;;;;;6.97;1.42;;;5.00;63.90;;;;;;4119130;28;20058;-85
2022/11/17 00:29:22;;;;;;;7.55;1.67;;;5.00;63.90;;;;;;4112099;28;20183;-86
2022/11/17 00:34:22;;;;;;;5.90;1.55;;;5.00;63.90;;;;;;4135139;28;20045;-84
2022/11/17 00:36:54;;;;;;;3.47;1.40;;;5.00;64.10;;;;;;4115335;28;20034;-85
2022/11/17 00:39:16;;;;;;;3.63;1.52;;;4.90;64.50;;;;;;4136344;28;20045;-84
2022/11/17 00:41:37;;;;;;;6.63;1.50;;;4.70;64.60;;;;;;4121747;28;20073;-84
2022/11/17 00:43:57;;;;;;;8.20;2.13;;;4.70;65.00;;;;;;4116118;28;20030;-82
2022/11/17 00:46:18;;;;;;;3.35;1.70;;;4.70;65.30;;;;;;4126465;28;20034;-83
2022/11/17 00:48:38;;;;;;;3.92;1.55;;;4.80;65.50;;;;;;4129433;28;21021;-83
2022/11/17 00:51:02;;;;;;;3.53;1.20;;;4.80;65.10;;;;;;4114793;28;20034;-83
2022/11/17 00:53:23;;;;;;;5.25;1.42;;;4.90;64.50;;;;;;4132798;28;20034;-85
2022/11/17 00:55:24;;;;;;;3.72;1.73;;;4.80;64.30;;;;;;4120112;28;20113;-84
2022/11/17 00:57:24;;;;;;;10.45;1.40;;;4.70;64.50;;;;;;4116005;28;20064;-85
2022/11/17 00:59:25;;;;;;;3.42;1.42;;;4.80;64.60;;;;;;4135225;28;20026;-85
2022/11/17 01:01:26;;;;;;;10.50;1.90;;;5.00;64.80;;;;;;4134080;28;20018;-83
2022/11/17 01:03:26;;;;;;;4.65;1.45;;;4.70;64.20;;;;;;4135215;28;20125;-83
2022/11/17 01:05:27;;;;;;;6.00;1.58;;;4.70;64.40;;;;;;4123090;28;20031;-83
2022/11/17 01:07:48;;;;;;;5.68;1.73;;;4.70;65.40;;;;;;4118818;28;20042;-83
2022/11/17 01:10:09;;;;;;;6.22;1.60;;;4.70;65.00;;;;;;4133193;28;20037;-84
2022/11/17 01:12:29;;;;;;;4.78;1.35;;;4.80;66.20;;;;;;4131622;28;20048;-84
2022/11/17 01:14:34;;;;;;;5.38;1.70;;;4.80;65.60;;;;;;4116895;28;20531;-85
2022/11/17 01:16:54;;;;;;;15.27;2.15;;;4.80;65.50;;;;;;4134992;28;20038;-83
2022/11/17 01:19:17;;;;;;;5.82;2.17;;;4.70;65.80;;;;;;4121512;28;20031;-84
2022/11/17 01:21:38;;;;;;;6.87;2.33;;;4.80;65.90;;;;;;4124492;28;20156;-85
2022/11/17 01:24:00;;;;;;;5.03;2.00;;;4.70;66.10;;;;;;4134954;28;20125;-86
2022/11/17 01:26:24;;;;;;;5.65;1.70;;;4.80;66.40;;;;;;4133327;28;20037;-85
2022/11/17 01:28:44;;;;;;;;;;;4.80;66.60;;;;;;4133772;28;20034;-84
2022/11/17 01:31:07;;;;;;;6.47;1.95;;;4.80;66.60;;;;;;4117481;28;19918;-85
2022/11/17 01:33:28;;;;;;;8.33;1.80;;;4.90;66.20;;;;;;4130229;28;20106;-85
2022/11/17 01:35:29;;;;;;;5.20;1.90;;;4.80;65.90;;;;;;4132802;28;20522;-86
2022/11/17 01:37:30;;;;;;;7.00;1.65;;;4.90;65.90;;;;;;4118023;28;20454;-86
2022/11/17 01:39:31;;;;;;;5.13;1.88;;;5.00;65.80;;;;;;4116547;28;20451;-86
2022/11/17 01:41:52;;;;;;;7.97;1.95;;;4.90;65.50;;;;;;4130347;28;20041;-86
2022/11/17 01:44:35;;;;;;;3.65;1.63;;;4.90;65.50;;;;;;4119082;28;20034;-85
2022/11/17 01:46:55;;;;;;;7.82;1.73;;;4.90;65.30;;;;;;4135478;28;20077;-85
2022/11/17 01:49:24;;;;;;;4.75;1.70;;;4.80;64.60;;;;;;4130256;28;20036;-84
2022/11/17 01:51:49;;;;;;;7.95;1.65;;;4.90;64.70;;;;;;4121355;28;20038;-85
2022/11/17 01:54:12;;;;;;;4.95;1.95;;;4.90;64.80;;;;;;4130136;28;20031;-84
2022/11/17 01:56:38;;;;;;;5.03;1.75;;;4.90;64.90;;;;;;4130747;28;20042;-83
2022/11/17 01:59:07;;;;;;;6.47;1.83;;;4.90;65.00;;;;;;4117301;28;20066;-85
2022/11/17 02:01:13;;;;;;;5.82;1.80;;;4.90;65.00;;;;;;4129780;28;21776;-84
2022/11/17 02:03:14;;;;;;;10.20;1.70;;;4.90;64.90;;;;;;4115703;28;20098;-84
2022/11/17 02:05:56;;;;;;;5.75;1.73;;;5.00;64.90;;;;;;4117524;28;20125;-84
2022/11/17 02:08:19;;;;;;;3.55;1.73;;;4.90;64.90;;;;;;4131402;28;20803;-85
2022/11/17 02:10:42;;;;;;;8.50;1.88;;;4.90;64.80;;;;;;4129342;28;20030;-85
2022/11/17 02:13:03;;;;;;;7.03;1.90;;;4.70;64.70;;;;;;4119385;28;20034;-84
2022/11/17 02:15:26;;;;;;;6.85;1.85;;;4.80;65.00;;;;;;4129583;28;20049;-85
2022/11/17 02:17:49;;;;;;;5.03;1.80;;;4.90;65.00;;;;;;4128997;28;20108;-85
2022/11/17 02:20:15;;;;;;;3.05;1.70;;;4.90;65.00;;;;;;4133248;28;20039;-85
2022/11/17 02:23:10;;;;;;;4.50;2.45;;;4.80;64.40;;;;;;4118061;28;20027;-85
2022/11/17 02:25:51;;;;;;;4.70;2.05;;;4.70;64.60;;;;;;4134057;28;20036;-85
2022/11/17 02:28:03;;;;;;;5.95;1.70;;;4.80;64.60;;;;;;4130233;28;20038;-85
2022/11/17 02:30:09;;;;;;;5.13;1.90;;;4.90;64.50;;;;;;4125705;28;20045;-85
2022/11/17 02:32:17;;;;;;;6.60;1.77;;;4.90;64.50;;;;;;4113845;28;20030;-85
2022/11/17 02:34:46;;;;;;;5.32;1.88;;;4.80;64.10;;;;;;4133002;28;20097;-86
2022/11/17 02:37:24;;;;;;;4.22;1.50;;;4.70;64.70;;;;;;4132684;28;20042;-85
2022/11/17 02:39:48;;;;;;;6.90;1.90;;;4.80;64.80;;;;;;4134546;28;20041;-85
2022/11/17 02:45:19;;;;;;;5.10;1.48;;;4.80;65.00;;;;;;4134301;28;20040;-84
2022/11/17 02:47:41;;;;;;;5.85;1.38;;;4.80;65.00;;;;;;4135523;28;20041;-85
2022/11/17 02:50:08;;;;;;;5.55;1.80;;;5.00;64.80;;;;;;4130854;28;20034;-85
2022/11/17 02:52:29;;;;;;;6.32;1.80;;;4.80;63.60;;;;;;4117686;28;20186;-85
2022/11/17 02:54:50;;;;;;;5.22;2.00;;;4.90;63.50;;;;;;4114582;28;20035;-84
2022/11/17 02:56:50;;;;;;;4.88;1.80;;;4.90;63.60;;;;;;4135290;28;20108;-84
2022/11/17 02:59:14;;;;;;;6.35;2.30;;;4.90;63.70;;;;;;4134034;28;20034;-85
2022/11/17 03:02:32;;;;;;;4.22;1.88;;;4.90;63.70;;;;;;4133053;28;20041;-84
2022/11/17 03:05:09;;;;;;;4.75;1.83;;;4.90;63.90;;;;;;4069813;29;20043;-85
2022/11/17 03:08:02;;;;;;;5.85;2.22;;;4.90;63.80;;;;;;4137911;28;20084;-83
2022/11/17 03:10:39;;;;;;;6.53;2.08;;;5.00;63.90;;;;;;4120038;28;20023;-84
2022/11/17 03:13:07;;;;;;;6.53;1.98;;;4.90;64.00;;;;;;4120348;28;20038;-86
2022/11/17 03:15:47;;;;;;;6.07;2.50;;;4.90;64.20;;;;;;4134462;28;20060;-84
2022/11/17 03:18:19;;;;;;;9.80;2.72;;;4.90;64.70;;;;;;4136249;28;20042;-85
2022/11/17 03:20:57;;;;;;;4.18;1.90;;;4.80;64.90;;;;;;4121510;28;20070;-84
2022/11/17 03:23:39;;;;;;;7.32;1.80;;;4.80;65.50;;;;;;4117933;28;20030;-86
2022/11/17 03:26:04;;;;;;;3.63;1.55;;;4.80;65.40;;;;;;4141776;28;20069;-84
2022/11/17 03:28:28;;;;;;;8.38;2.33;;;4.90;65.50;;;;;;4132657;28;20104;-85
2022/11/17 03:30:51;;;;;;;9.90;2.08;;;4.90;66.30;;;;;;4135401;28;20096;-84
2022/11/17 03:33:22;;;;;;;5.72;2.22;;;5.00;66.20;;;;;;4134001;28;20029;-84
2022/11/17 03:35:59;;;;;;;8.80;2.50;;;4.90;66.30;;;;;;4120361;28;20088;-85
2022/11/17 03:38:23;;;;;;;4.32;2.17;;;4.80;67.40;;;;;;4120888;28;20046;-84
2022/11/17 03:40:48;;;;;;;6.00;2.13;;;4.90;66.70;;;;;;4133055;28;20049;-84
2022/11/17 03:43:12;;;;;;;6.15;2.10;;;4.90;66.60;;;;;;4128054;28;20040;-84
2022/11/17 03:45:33;;;;;;;5.68;2.33;;;5.00;66.70;;;;;;4134599;28;20040;-85
2022/11/17 03:48:13;;;;;;;6.75;2.67;;;5.00;66.80;;;;;;4117958;28;20065;-85
2022/11/17 03:50:37;;;;;;;8.93;2.60;;;5.00;66.80;;;;;;4116849;28;20137;-84
2022/11/17 03:53:00;;;;;;;8.10;2.55;;;5.00;67.00;;;;;;4131264;28;20132;-84
2022/11/17 03:55:28;;;;;;;7.38;2.20;;;5.00;67.10;;;;;;4137975;28;20519;-83
2022/11/17 03:57:55;;;;;;;7.82;2.40;;;4.80;67.30;;;;;;4133704;28;20060;-83
2022/11/17 04:00:17;;;;;;;7.68;2.83;;;4.90;67.20;;;;;;4135917;28;20044;-84
2022/11/17 04:02:43;;;;;;;9.43;2.33;;;4.80;67.10;;;;;;4128756;28;20041;-85
2022/11/17 04:05:08;;;;;;;10.48;2.80;;;4.80;67.20;;;;;;4135535;28;20027;-85
2022/11/17 04:07:28;;;;;;;13.48;3.08;;;4.80;67.20;;;;;;4116905;28;20027;-84
2022/11/17 04:09:49;;;;;;;16.13;3.05;;;4.80;67.10;;;;;;4129690;28;20048;-85
2022/11/17 04:17:08;;;;;;;6.45;2.40;;;4.60;67.80;;;;;;4130667;28;20036;-86
2022/11/17 04:19:08;;;;;;;7.53;2.90;;;4.40;68.30;;;;;;4131453;28;20045;-85
2022/11/17 04:21:29;;;;;;;14.48;3.17;;;4.40;69.00;;;;;;4117351;28;20125;-85
2022/11/17 04:23:50;;;;;;;9.68;2.92;;;4.40;69.20;;;;;;4117407;28;20117;-86
2022/11/17 04:30:32;;;;;;;18.58;3.95;;;4.40;68.90;;;;;;4131489;28;20387;-85
2022/11/17 04:32:53;;;;;;;7.70;3.47;;;4.40;69.10;;;;;;4131656;28;20033;-85
2022/11/17 04:34:54;;;;;;;7.55;3.22;;;4.30;69.70;;;;;;4115712;28;20043;-84
2022/11/17 04:37:17;;;;;;;7.05;2.97;;;4.30;70.20;;;;;;4131669;28;20038;-86
2022/11/17 04:39:38;;;;;;;9.10;3.33;;;4.40;70.40;;;;;;4080720;28;1134393;-85
2022/11/17 04:42:01;;;;;;;12.00;3.95;;;4.30;70.70;;;;;;4133052;28;20127;-86
2022/11/17 04:44:03;;;;;;;6.35;3.33;;;4.30;70.90;;;;;;4133149;28;20184;-86
2022/11/17 04:46:25;;;;;;;9.75;3.70;;;4.30;71.30;;;;;;4116499;28;20031;-84
2022/11/17 04:48:27;;;;;;;7.15;2.78;;;4.50;71.50;;;;;;4118702;28;20034;-85
2022/11/17 04:50:27;;;;;;;7.95;2.90;;;4.40;71.50;;;;;;4119463;28;20045;-84
2022/11/17 04:52:48;;;;;;;12.25;3.67;;;4.20;71.60;;;;;;4128923;28;20034;-85
2022/11/17 04:54:48;;;;;;;6.35;2.72;;;4.00;72.00;;;;;;4119305;28;20113;-85
2022/11/17 04:56:50;;;;;;;5.45;2.95;;;4.20;72.00;;;;;;4130030;28;20084;-86
2022/11/17 04:59:11;;;;;;;9.30;3.58;;;4.10;71.70;;;;;;4134454;28;20052;-86
2022/11/17 05:01:32;;;;;;;5.95;3.15;;;4.10;71.70;;;;;;4127327;28;20026;-83
2022/11/17 05:03:55;;;;;;;9.27;3.22;;;4.20;72.00;;;;;;4129602;28;21582;-83
2022/11/17 05:06:31;;;;;;;5.88;3.30;;;4.20;72.10;;;;;;4132884;28;20034;-86
2022/11/17 05:08:54;;;;;;;9.25;3.47;;;4.00;72.90;;;;;;4135895;28;20029;-85
2022/11/17 05:13:56;;;;;;;9.57;3.28;;;4.10;72.80;;;;;;4130321;28;20117;-86
2022/11/17 05:18:16;;;;;;;8.98;3.42;;;4.20;73.20;;;;;;4134973;28;20023;-85
2022/11/17 05:20:37;;;;;;;10.38;3.25;;;3.90;73.30;;;;;;4131892;28;20056;-85
2022/11/17 05:25:30;;;;;;;10.13;3.35;;;4.10;73.30;;;;;;4079620;28;20025;-85
2022/11/17 05:27:32;;;;;;;6.25;3.20;;;4.10;73.20;;;;;;4131246;28;20528;-86
2022/11/17 05:29:53;;;;;;;12.32;3.45;;;4.00;73.20;;;;;;4131970;28;20386;-85
2022/11/17 05:32:14;;;;;;;9.15;2.97;;;4.10;73.30;;;;;;4131327;28;21869;-86
2022/11/17 05:34:34;;;;;;;7.57;3.00;;;4.10;73.10;;;;;;4127280;28;20500;-86
2022/11/17 05:36:55;;;;;;;9.65;2.88;;;4.10;73.00;;;;;;4127372;28;21286;-85
2022/11/17 05:39:15;;;;;;;5.47;2.70;;;4.20;73.00;;;;;;4113208;28;20513;-86
2022/11/17 05:41:36;;;;;;;9.40;3.05;;;4.20;73.10;;;;;;4131892;28;20474;-85
2022/11/17 05:43:57;;;;;;;8.73;2.97;;;4.20;73.10;;;;;;4131871;28;20064;-85
2022/11/17 05:46:19;;;;;;;9.75;3.05;;;3.90;73.00;;;;;;4129457;28;20042;-85
2022/11/17 05:48:20;;;;;;;8.30;3.08;;;4.00;73.30;;;;;;4113573;28;20490;-86
2022/11/17 05:50:21;;;;;;;10.85;3.42;;;3.90;73.50;;;;;;4132834;28;20022;-85
2022/11/17 05:52:22;;;;;;;10.07;3.38;;;3.70;74.00;;;;;;4129844;28;20044;-86
2022/11/17 05:54:22;;;;;;;7.20;2.65;;;3.80;74.10;;;;;;4130422;28;20056;-85
2022/11/17 05:56:51;;;;;;;6.38;2.83;;;3.80;73.90;;;;;;4111716;28;20030;-84
2022/11/17 05:58:58;;;;;;;11.63;2.97;;;3.80;73.60;;;;;;4116887;28;20440;-84
2022/11/17 06:00:59;;;;;;;10.70;2.88;;;3.90;73.30;;;;;;4126272;28;20581;-85
2022/11/17 06:03:06;;;;;;;7.47;2.42;;;3.70;72.90;;;;;;4130573;28;20023;-86
2022/11/17 06:05:08;;;;;;;8.57;2.55;;;3.90;72.80;;;;;;4127147;28;21241;-85
2022/11/17 06:07:09;;;;;;;6.97;2.42;;;3.70;72.50;;;;;;4126569;28;20553;-85
2022/11/17 06:09:10;;;;;;;10.95;2.40;;;3.70;72.20;;;;;;4121139;28;20663;-85
2022/11/17 06:11:12;;;;;;;8.70;2.72;;;3.80;72.10;;;;;;4108995;28;22559;-85
2022/11/17 06:13:13;;;;;;;3.58;2.00;;;3.80;71.50;;;;;;4132274;28;20034;-85
2022/11/17 06:15:14;;;;;;;6.40;2.10;;;3.90;71.30;;;;;;4134591;28;20085;-85
2022/11/17 06:17:26;;;;;;;7.97;2.05;;;3.90;71.70;;;;;;4123646;28;20366;-85
2022/11/17 06:19:33;;;;;;;7.18;2.30;;;3.80;70.60;;;;;;4120837;28;20038;-85
2022/11/17 06:21:35;;;;;;;11.40;2.80;;;3.90;70.50;;;;;;4123864;28;20158;-85
2022/11/17 06:23:36;;;;;;;6.93;2.42;;;3.90;70.20;;;;;;4119800;28;20026;-85
2022/11/17 06:25:38;;;;;;;9.32;2.00;;;3.90;70.70;;;;;;4135425;28;20692;-85
2022/11/17 06:27:40;;;;;;;5.85;2.22;;;4.00;71.40;;;;;;4101909;28;20667;-85
2022/11/17 06:29:41;;;;;;;8.70;2.45;;;4.10;70.20;;;;;;4136210;28;20033;-86
2022/11/17 06:31:43;;;;;;;8.57;2.25;;;4.00;70.00;;;;;;4126598;28;20112;-86
2022/11/17 06:33:45;;;;;;;8.43;2.13;;;3.90;70.00;;;;;;4135553;28;20034;-85
2022/11/17 06:35:48;;;;;;;8.50;2.58;;;3.80;69.80;;;;;;4110211;28;20027;-83
2022/11/17 06:37:49;;;;;;;9.10;2.85;;;3.80;70.30;;;;;;4139638;28;20105;-86
2022/11/17 06:39:49;;;;;;;4.60;2.30;;;3.80;70.40;;;;;;4126606;28;20030;-84
2022/11/17 06:41:50;;;;;;;12.48;2.97;;;3.70;70.60;;;;;;4119507;28;20495;-85
2022/11/17 06:43:51;;;;;;;11.82;2.80;;;3.70;70.80;;;;;;4139429;28;20114;-86
2022/11/17 06:45:51;;;;;;;8.23;2.60;;;3.70;70.60;;;;;;4104874;28;20023;-85
2022/11/17 06:47:53;;;;;;;6.38;2.15;;;3.80;70.70;;;;;;4135419;28;20073;-85
2022/11/17 06:49:53;;;;;;;6.68;2.72;;;3.80;70.50;;;;;;4122663;28;20027;-86
2022/11/17 06:51:54;;;;;;;5.50;2.60;;;4.00;70.50;;;;;;4122294;28;20030;-85
2022/11/17 06:53:55;;;;;;;7.85;2.97;;;4.00;70.70;;;;;;4135847;28;20065;-84
2022/11/17 06:56:08;;;;;;;17.00;3.42;;;4.10;70.60;;;;;;4135029;28;20023;-85
2022/11/17 06:58:10;;;;;;;9.38;2.83;;;3.90;70.50;;;;;;4118296;28;20102;-85
2022/11/17 07:00:11;;;;;;;13.00;2.70;;;4.00;70.80;;;;;;4120891;28;20027;-86
2022/11/17 07:02:12;;;;;;;6.28;2.40;;;4.00;70.40;;;;;;4129785;28;20145;-85
2022/11/17 07:04:13;;;;;;;7.68;2.85;;;4.00;70.20;;;;;;4122140;28;20243;-85
2022/11/17 07:06:15;;;;;;;5.82;2.33;;;4.00;70.10;;;;;;4139669;28;20010;-85
2022/11/17 07:08:17;;;;;;;6.93;2.60;;;4.00;69.80;;;;;;4136075;28;20038;-84
2022/11/17 07:10:18;;;;;;;7.68;2.53;;;4.00;69.60;;;;;;4138572;28;20075;-85
2022/11/17 07:12:19;;;;;;;9.13;2.53;;;4.10;69.80;;;;;;4139083;28;20179;-85
2022/11/17 07:14:19;;;;;;;6.82;2.63;;;3.90;69.70;;;;;;4125163;28;20614;-85
2022/11/17 07:16:20;;;;;;;7.55;2.97;;;3.90;70.20;;;;;;4107031;28;20574;-85
2022/11/17 07:18:21;;;;;;;12.00;2.55;;;4.00;70.60;;;;;;4141548;28;20026;-85
2022/11/17 07:20:22;;;;;;;9.73;2.70;;;4.00;70.80;;;;;;4143838;28;20101;-85
2022/11/17 07:22:23;;;;;;;6.35;2.60;;;4.10;71.00;;;;;;4138823;28;20029;-85
2022/11/17 07:24:24;;;;;;;9.80;2.80;;;4.00;71.70;;;;;;4122914;28;20023;-85
2022/11/17 07:26:25;;;;;;;9.30;2.65;;;4.00;72.10;;;;;;4144825;28;20038;-85
2022/11/17 07:28:26;;;;;;;5.97;2.45;;;4.00;72.00;;;;;;4140116;28;20037;-85
2022/11/17 07:30:27;;;;;;;8.65;2.70;;;4.10;71.80;;;;;;4142257;28;20030;-83
2022/11/17 07:32:27;;;;;;;10.90;2.47;;;4.10;71.80;;;;;;4139980;28;20034;-85
2022/11/17 07:34:28;;;;;;;8.77;3.05;;;4.00;71.90;;;;;;4145458;28;20110;-85
2022/11/17 07:36:28;;;;;;;12.05;2.55;;;4.10;71.60;;;;;;4128613;28;20038;-86
2022/11/17 07:38:31;;;;;;;6.15;2.10;;;4.10;71.70;;;;;;4128141;28;20045;-85
2022/11/17 07:40:31;;;;;;;8.67;2.70;;;4.10;71.50;;;;;;4145013;28;20098;-86
2022/11/17 07:42:32;;;;;;;6.30;2.10;;;4.10;71.10;;;;;;4128679;28;20018;-85
2022/11/17 07:44:33;;;;;;;10.45;2.47;;;4.20;70.80;;;;;;4127913;28;20644;-87
2022/11/17 07:46:34;;;;;;;9.73;2.60;;;4.20;70.60;;;;;;4140728;28;20360;-86
2022/11/17 07:48:34;;;;;;;4.70;2.00;;;4.20;70.60;;;;;;4138503;28;20041;-86
2022/11/17 07:50:38;;;;;;;6.75;2.53;;;4.30;70.50;;;;;;4124543;28;20045;-86
2022/11/17 07:52:39;;;;;;;5.93;2.15;;;4.20;70.30;;;;;;4141020;28;20026;-86
2022/11/17 07:54:40;;;;;;;5.82;2.30;;;4.30;70.30;;;;;;4140090;28;20738;-85
2022/11/17 07:56:40;;;;;;;7.43;2.25;;;4.20;70.20;;;;;;4121544;28;20037;-86
2022/11/17 07:58:41;;;;;;;11.48;2.13;;;4.20;70.40;;;;;;4137304;28;20037;-85
2022/11/17 08:00:42;;;;;;;8.32;2.63;;;4.20;70.50;;;;;;4137064;28;20026;-86
2022/11/17 08:02:42;;;;;;;10.13;2.40;;;4.20;70.40;;;;;;4142073;28;20045;-85
2022/11/17 08:04:43;;;;;;;7.40;2.70;;;4.20;70.40;;;;;;4140664;28;20026;-83
2022/11/17 08:06:44;;;;;;;5.57;2.10;;;4.30;70.30;;;;;;4119280;28;20033;-84
2022/11/17 08:08:47;;;;;;;13.57;2.38;;;4.40;70.30;;;;;;4123809;28;20044;-87
2022/11/17 08:10:48;;;;;;;5.53;2.03;;;4.30;70.00;;;;;;4111846;28;20049;-86
2022/11/17 08:12:53;;;;;;;5.07;2.45;;;4.30;69.50;;;;;;4142262;28;20093;-86
2022/11/17 08:14:53;;;;;;;10.30;2.53;;;4.30;69.20;;;;;;4118557;28;20062;-86
2022/11/17 08:16:54;;;;;;;5.05;2.15;;;4.40;69.00;;;;;;4123459;28;20029;-86
2022/11/17 08:18:56;;;;;;;6.97;2.53;;;4.20;68.60;;;;;;4118988;28;20045;-85
2022/11/17 08:21:23;;;;;;;7.90;2.03;;;4.30;68.60;;;;;;4134868;28;20029;-87
2022/11/17 08:23:24;;;;;;;4.60;2.10;;;4.30;68.20;;;;;;4099586;28;20039;-86
2022/11/17 08:25:25;;;;;;;7.55;2.17;;;4.30;68.20;;;;;;4134703;28;20026;-86
2022/11/17 08:27:26;;;;;;;6.00;2.13;;;4.20;67.80;;;;;;4136087;28;20018;-86
2022/11/17 08:29:27;;;;;;;11.93;2.40;;;4.20;68.00;;;;;;4124102;28;20030;-86
2022/11/17 08:31:27;;;;;;;7.03;2.47;;;4.20;68.00;;;;;;4117895;28;20038;-87
2022/11/17 08:33:28;;;;;;;11.07;2.58;;;4.20;68.40;;;;;;4134975;28;20168;-87
2022/11/17 08:35:29;;;;;;;5.43;2.25;;;4.10;68.00;;;;;;4141266;28;20033;-85
2022/11/17 08:37:30;;;;;;;4.63;2.20;;;4.10;68.20;;;;;;4126941;28;20030;-86
2022/11/17 08:39:30;;;;;;;10.10;2.95;;;4.10;68.30;;;;;;4138313;28;20041;-87
2022/11/17 08:41:31;;;;;;;10.38;2.83;;;4.10;68.40;;;;;;4136361;28;20038;-85
2022/11/17 08:43:32;;;;;;;6.60;2.53;;;4.20;68.70;;;;;;4139549;28;20116;-85
2022/11/17 08:45:33;;;;;;;8.70;2.90;;;4.20;68.80;;;;;;4135889;28;20498;-87
2022/11/17 08:47:34;;;;;;;8.82;2.60;;;4.10;69.00;;;;;;4140048;28;20029;-86
2022/11/17 08:49:34;;;;;;;7.13;3.05;;;4.20;69.20;;;;;;4137238;28;20037;-86
2022/11/17 08:51:36;;;;;;;7.75;3.45;;;4.20;69.10;;;;;;4116076;28;20030;-86
2022/11/17 08:53:36;;;;;;;10.20;3.97;;;4.00;69.20;;;;;;4120101;28;20041;-84
2022/11/17 08:55:37;;;;;;;10.85;3.85;;;4.10;69.60;;;;;;4136118;28;20081;-84
2022/11/17 08:57:39;;;;;;;9.35;4.00;;;4.10;69.50;;;;;;4116477;28;20062;-84
2022/11/17 08:59:40;;;;;;;7.55;4.05;;;4.10;69.80;;;;;;4134522;28;20030;-83
2022/11/17 09:01:41;;;;;;;14.27;4.45;;;4.20;69.90;;;;;;4132634;28;20022;-86
2022/11/17 09:03:44;;;;;;;13.30;4.55;;;4.20;70.00;;;;;;4137286;28;20084;-85
2022/11/17 09:05:48;;;;;;;11.70;6.03;;;4.20;69.90;;;;;;4124240;28;20034;-84
2022/11/17 09:07:49;;;;;;;15.57;5.93;;;4.20;69.80;;;;;;4134914;28;20497;-83
2022/11/17 09:09:50;;;;;;;12.43;5.07;;;4.20;69.70;;;;;;4134949;28;20030;-85
2022/11/17 09:11:51;;;;;;;10.32;5.30;;;4.20;69.80;;;;;;4135333;28;20036;-86
2022/11/17 09:13:51;;;;;;;13.82;5.47;;;4.10;70.10;;;;;;4114590;28;20154;-85
2022/11/17 09:15:52;;;;;;;9.07;5.90;;;4.10;70.00;;;;;;4135226;28;20026;-85
2022/11/17 09:17:53;;;;;;;15.90;6.45;;;4.10;70.10;;;;;;4141037;28;20091;-86
2022/11/17 09:19:54;;;;;;;11.52;6.20;;;4.10;69.90;;;;;;4134638;28;20026;-84
2022/11/17 09:21:54;;;;;;;17.52;5.78;;;4.20;69.80;;;;;;4099826;28;20031;-84
2022/11/17 09:23:55;;;;;;;10.38;6.18;;;4.20;69.60;;;;;;4134492;28;20029;-85
2022/11/17 09:25:57;;;;;;;16.58;7.70;;;4.20;69.50;;;;;;4133672;28;20033;-85
2022/11/17 09:27:57;;;;;;;11.00;6.38;;;4.10;69.40;;;;;;4140780;28;20033;-84
2022/11/17 09:29:59;;;;;;;17.65;7.38;;;4.20;69.60;;;;;;4120420;28;20038;-85
2022/11/17 09:31:59;;;;;;;21.13;7.28;;;4.20;69.70;;;;;;4134203;28;20021;-85
2022/11/17 09:34:00;;;;;;;14.07;7.30;;;4.20;70.10;;;;;;4119204;28;20033;-85
2022/11/17 09:36:01;;;;;;;17.80;8.77;;;4.10;71.00;;;;;;4126236;28;20027;-84
2022/11/17 09:38:02;;;;;;;19.85;7.80;;;4.00;70.80;;;;;;4131222;28;20026;-85
2022/11/17 09:40:03;;;;;;;15.93;9.02;;;4.10;70.80;;;;;;4133274;28;20030;-84
2022/11/17 09:42:04;;;;;;;17.17;7.80;;;4.10;70.80;;;;;;4125293;28;20022;-85
2022/11/17 09:44:30;;;;;;;18.60;7.47;;;4.10;71.20;;;;;;4116943;28;20026;-85
2022/11/17 09:46:56;;;;;;;13.20;7.60;;;4.00;72.50;;;;;;4135044;28;20030;-84
2022/11/17 09:49:25;;;;;;;14.25;7.30;;;4.00;71.70;;;;;;4139298;28;20595;-84
2022/11/17 09:51:29;;;;;;;17.05;7.25;;;4.10;71.60;;;;;;4128807;28;20038;-84
2022/11/17 09:53:43;;;;;;;15.05;8.20;;;4.10;71.50;;;;;;4099433;28;20049;-85
2022/11/17 09:55:55;;;;;;;11.98;6.60;;;4.00;71.70;;;;;;4136715;28;20025;-85
2022/11/17 09:58:13;;;;;;;15.15;6.82;;;4.00;71.50;;;;;;4142476;28;20026;-84
2022/11/17 10:00:21;;;;;;;10.70;6.05;;;4.10;71.50;;;;;;4135241;28;20029;-85
2022/11/17 10:02:22;;;;;;;13.13;5.65;;;4.00;71.30;;;;;;4136691;28;20034;-85
2022/11/17 10:04:28;;;;;;;14.55;6.03;;;4.10;71.20;;;;;;4135140;28;20019;-85
2022/11/17 10:06:30;;;;;;;12.98;5.72;;;4.00;70.90;;;;;;4137146;28;20145;-84
2022/11/17 10:08:40;;;;;;;15.48;6.60;;;4.00;70.90;;;;;;4117913;28;20035;-85
2022/11/17 10:10:47;;;;;;;16.17;7.20;;;4.10;71.00;;;;;;4138524;28;20113;-85
2022/11/17 10:12:54;;;;;;;15.68;7.10;;;4.00;71.10;;;;;;4118565;28;20038;-85
2022/11/17 10:14:56;;;;;;;18.25;7.57;;;4.00;71.50;;;;;;4136950;28;20029;-85
2022/11/17 10:16:58;;;;;;;17.13;7.60;;;4.00;71.70;;;;;;4133577;28;20034;-85
2022/11/17 10:19:07;;;;;;;16.73;6.82;;;4.00;71.80;;;;;;4105447;28;20042;-84
2022/11/17 10:21:08;;;;;;;16.73;5.90;;;4.00;71.70;;;;;;4110465;28;20035;-84
2022/11/17 10:23:15;;;;;;;19.38;5.30;;;4.00;71.40;;;;;;4132073;28;21268;-84
2022/11/17 10:25:43;;;;;;;10.98;5.40;;;4.00;71.30;;;;;;4137926;28;20093;-85
2022/11/17 10:27:52;;;;;;;17.30;7.50;;;4.00;71.20;;;;;;4100804;28;20039;-85
2022/11/17 10:30:22;;;;;;;12.70;6.05;;;3.80;71.40;;;;;;4133860;28;20031;-84
2022/11/17 10:32:48;;;;;;;14.30;6.63;;;3.90;71.80;;;;;;4134325;28;20096;-85
2022/11/17 10:34:50;;;;;;;21.08;6.90;;;3.90;71.80;;;;;;4133151;28;20026;-84
2022/11/17 10:37:16;;;;;;;15.52;5.93;;;3.90;71.90;;;;;;4118087;28;20045;-84
2022/11/17 10:39:38;;;;;;;17.75;6.43;;;3.90;71.90;;;;;;4133592;28;20036;-84
2022/11/17 10:41:44;;;;;;;12.15;6.32;;;3.90;72.10;;;;;;4116267;28;20107;-85
2022/11/17 10:44:26;;;;;;;19.90;7.55;;;3.90;72.00;;;;;;4136980;28;20038;-85
2022/11/17 10:46:27;;;;;;;16.48;6.65;;;3.90;71.90;;;;;;4052074;29;20028;-85
2022/11/17 10:48:29;;;;;;;15.07;6.88;;;3.80;71.80;;;;;;4049860;29;20049;-84
2022/11/17 10:50:30;;;;;;;18.65;7.25;;;3.80;71.90;;;;;;4053719;29;20048;-84
2022/11/17 10:52:31;;;;;;;14.23;6.93;;;3.80;72.00;;;;;;4047887;29;20504;-84
2022/11/17 10:54:31;;;;;;;14.15;7.30;;;3.90;72.90;;;;;;4049699;29;20041;-85
2022/11/17 10:56:40;;;;;;;15.27;7.97;;;3.90;72.20;;;;;;4060099;29;20040;-86
2022/11/17 10:59:07;;;;;;;16.15;7.60;;;3.80;72.10;;;;;;4033071;29;20507;-85
2022/11/17 11:01:09;;;;;;;14.85;7.78;;;3.70;72.50;;;;;;4039614;29;20035;-85
2022/11/17 11:03:18;;;;;;;15.75;7.93;;;3.70;72.40;;;;;;4062595;29;20032;-83
2022/11/17 11:05:20;;;;;;;16.33;7.95;;;3.80;72.20;;;;;;4065132;29;20032;-85
2022/11/17 11:07:22;;;;;;;15.48;8.73;;;3.70;72.10;;;;;;4049780;29;20048;-85
2022/11/17 11:09:24;;;;;;;15.23;7.90;;;3.80;72.20;;;;;;4067331;29;20064;-85
2022/11/17 11:11:43;;;;;;;17.00;7.65;;;3.80;72.30;;;;;;4054097;29;20063;-85
2022/11/17 11:13:54;;;;;;;17.75;8.52;;;3.80;72.10;;;;;;4064589;29;20070;-84
2022/11/17 11:15:55;;;;;;;17.23;9.13;;;3.80;72.00;;;;;;4046881;29;20035;-87
2022/11/17 11:17:56;;;;;;;15.23;8.38;;;3.50;72.10;;;;;;4052655;29;20036;-87
2022/11/17 11:19:58;;;;;;;16.58;7.93;;;3.70;72.40;;;;;;4038236;29;20031;-86
2022/11/17 11:22:35;;;;;;;12.77;7.25;;;3.70;72.50;;;;;;4064619;29;20037;-87
2022/11/17 11:25:31;;;;;;;18.30;6.85;;;3.70;72.40;;;;;;4122550;28;20031;-86
2022/11/17 11:28:13;;;;;;;10.35;6.20;;;3.80;72.50;;;;;;4138247;28;20030;-86
2022/11/17 11:30:46;;;;;;;19.65;6.65;;;3.80;72.70;;;;;;4122370;28;20231;-86
2022/11/17 11:33:21;;;;;;;12.25;6.18;;;3.90;72.70;;;;;;4134980;28;21023;-85
2022/11/17 11:36:17;;;;;;;19.73;7.05;;;3.70;72.80;;;;;;4136727;28;20034;-83
2022/11/17 11:38:57;;;;;;;10.45;5.40;;;3.60;73.00;;;;;;4148531;28;20041;-84
2022/11/17 11:41:20;;;;;;;12.25;5.78;;;3.70;73.30;;;;;;4139177;28;20596;-84
2022/11/17 11:43:33;;;;;;;20.25;7.15;;;3.70;73.60;;;;;;4133430;28;20030;-84
2022/11/17 11:45:39;;;;;;;13.73;6.17;;;3.70;73.40;;;;;;4134658;28;20029;-83
2022/11/17 11:48:07;;;;;;;14.93;6.78;;;3.60;73.30;;;;;;4119963;28;20018;-85
2022/11/17 11:50:19;;;;;;;17.90;6.60;;;3.70;73.40;;;;;;4117343;28;20029;-84
2022/11/17 11:52:23;;;;;;;13.20;7.10;;;3.60;73.60;;;;;;4134717;28;20120;-85
2022/11/17 11:54:33;;;;;;;14.18;7.55;;;3.70;73.50;;;;;;4124130;28;20028;-84
2022/11/17 11:56:39;;;;;;;16.42;7.90;;;3.80;73.50;;;;;;4134276;28;20068;-84
2022/11/17 11:58:50;;;;;;;14.05;6.38;;;3.80;73.40;;;;;;4133396;28;20022;-85
2022/11/17 12:01:03;;;;;;;16.70;7.28;;;3.80;73.20;;;;;;4137552;28;20026;-84
2022/11/17 12:03:33;;;;;;;14.05;7.00;;;3.80;73.00;;;;;;4137908;28;20398;-85